sensor_id;sensor_type;location;lat;lon;timestamp;temperature;humidity
23671;DHT22;12012;51.998;7.614;2022-11-25T00:00:25;4.70;1.00
23671;DHT22;12012;51.998;7.614;2022-11-25T00:02:51;4.70;1.00
23671;DHT22;12012;51.998;7.614;2022-11-25T00:05:16;4.70;1.00
23671;DHT22;12012;51.998;7.614;2022-11-25T00:07:42;4.80;1.60
23671;DHT22;12012;51.998;7.614;2022-11-25T00:10:07;4.90;1.00
23671;DHT22;12012;51.998;7.614;2022-11-25T00:12:33;4.90;1.00
23671;DHT22;12012;51.998;7.614;2022-11-25T00:14:59;4.90;4.50
23671;DHT22;12012;51.998;7.614;2022-11-25T00:17:24;5.00;13.10
23671;DHT22;12012;51.998;7.614;2022-11-25T00:19:50;5.10;27.30
23671;DHT22;12012;51.998;7.614;2022-11-25T00:22:16;5.10;23.60
23671;DHT22;12012;51.998;7.614;2022-11-25T00:24:41;5.20;27.00
23671;DHT22;12012;51.998;7.614;2022-11-25T00:27:07;5.20;18.60
23671;DHT22;12012;51.998;7.614;2022-11-25T00:29:33;5.30;25.50
23671;DHT22;12012;51.998;7.614;2022-11-25T00:31:58;5.40;14.00
23671;DHT22;12012;51.998;7.614;2022-11-25T00:34:24;5.40;17.80
23671;DHT22;12012;51.998;7.614;2022-11-25T00:36:50;5.40;11.00
23671;DHT22;12012;51.998;7.614;2022-11-25T00:39:18;5.50;13.80
23671;DHT22;12012;51.998;7.614;2022-11-25T00:41:45;5.50;7.40
23671;DHT22;12012;51.998;7.614;2022-11-25T00:44:30;5.60;8.10
23671;DHT22;12012;51.998;7.614;2022-11-25T00:47:15;5.60;3.30
23671;DHT22;12012;51.998;7.614;2022-11-25T00:49:45;5.60;1.00
23671;DHT22;12012;51.998;7.614;2022-11-25T00:52:17;5.60;1.00
23671;DHT22;12012;51.998;7.614;2022-11-25T00:54:43;5.60;1.00
23671;DHT22;12012;51.998;7.614;2022-11-25T00:57:13;5.60;1.00
23671;DHT22;12012;51.998;7.614;2022-11-25T00:59:39;5.60;1.00
23671;DHT22;12012;51.998;7.614;2022-11-25T01:02:04;5.60;1.00
23671;DHT22;12012;51.998;7.614;2022-11-25T01:04:30;5.70;1.00
23671;DHT22;12012;51.998;7.614;2022-11-25T01:06:56;5.70;1.00
23671;DHT22;12012;51.998;7.614;2022-11-25T01:09:24;5.70;1.00
23671;DHT22;12012;51.998;7.614;2022-11-25T01:11:50;5.70;1.00
23671;DHT22;12012;51.998;7.614;2022-11-25T01:14:17;5.80;1.00
23671;DHT22;12012;51.998;7.614;2022-11-25T01:16:42;5.70;1.00
23671;DHT22;12012;51.998;7.614;2022-11-25T01:19:09;5.70;1.00
23671;DHT22;12012;51.998;7.614;2022-11-25T01:21:35;5.70;1.00
23671;DHT22;12012;51.998;7.614;2022-11-25T01:24:02;5.70;1.00
23671;DHT22;12012;51.998;7.614;2022-11-25T01:26:28;5.70;1.00
23671;DHT22;12012;51.998;7.614;2022-11-25T01:28:56;5.60;1.00
23671;DHT22;12012;51.998;7.614;2022-11-25T01:31:24;5.70;1.00
23671;DHT22;12012;51.998;7.614;2022-11-25T01:33:56;5.70;1.00
23671;DHT22;12012;51.998;7.614;2022-11-25T01:36:22;5.70;1.00
23671;DHT22;12012;51.998;7.614;2022-11-25T01:38:52;5.70;1.50
23671;DHT22;12012;51.998;7.614;2022-11-25T01:41:19;5.70;1.00
23671;DHT22;12012;51.998;7.614;2022-11-25T01:44:17;5.70;1.00
23671;DHT22;12012;51.998;7.614;2022-11-25T01:47:11;5.70;1.00
23671;DHT22;12012;51.998;7.614;2022-11-25T01:50:01;5.80;1.00
23671;DHT22;12012;51.998;7.614;2022-11-25T01:52:29;5.80;1.00
23671;DHT22;12012;51.998;7.614;2022-11-25T01:55:00;5.80;1.00
23671;DHT22;12012;51.998;7.614;2022-11-25T01:57:31;5.90;2.10
23671;DHT22;12012;51.998;7.614;2022-11-25T02:00:01;5.90;6.50
23671;DHT22;12012;51.998;7.614;2022-11-25T02:02:28;6.00;10.10
23671;DHT22;12012;51.998;7.614;2022-11-25T02:04:54;6.00;8.00
23671;DHT22;12012;51.998;7.614;2022-11-25T02:07:31;6.10;4.70
23671;DHT22;12012;51.998;7.614;2022-11-25T02:09:59;6.10;3.70
23671;DHT22;12012;51.998;7.614;2022-11-25T02:12:26;6.20;6.50
23671;DHT22;12012;51.998;7.614;2022-11-25T02:14:54;6.20;3.00
23671;DHT22;12012;51.998;7.614;2022-11-25T02:17:21;6.20;1.90
23671;DHT22;12012;51.998;7.614;2022-11-25T02:19:51;6.30;1.80
23671;DHT22;12012;51.998;7.614;2022-11-25T02:23:05;6.30;1.00
23671;DHT22;12012;51.998;7.614;2022-11-25T02:25:14;6.40;3.50
23671;DHT22;12012;51.998;7.614;2022-11-25T02:27:41;6.40;1.00
23671;DHT22;12012;51.998;7.614;2022-11-25T02:30:08;6.40;1.00
23671;DHT22;12012;51.998;7.614;2022-11-25T02:32:33;6.50;1.00
23671;DHT22;12012;51.998;7.614;2022-11-25T02:34:59;6.50;1.00
23671;DHT22;12012;51.998;7.614;2022-11-25T02:37:25;6.60;1.00
23671;DHT22;12012;51.998;7.614;2022-11-25T02:39:52;6.60;1.00
23671;DHT22;12012;51.998;7.614;2022-11-25T02:42:19;6.70;1.00
23671;DHT22;12012;51.998;7.614;2022-11-25T02:44:47;6.70;1.00
23671;DHT22;12012;51.998;7.614;2022-11-25T02:47:13;6.70;1.00
23671;DHT22;12012;51.998;7.614;2022-11-25T02:49:38;6.80;1.00
23671;DHT22;12012;51.998;7.614;2022-11-25T02:52:04;6.80;1.00
23671;DHT22;12012;51.998;7.614;2022-11-25T02:54:29;6.80;1.00
23671;DHT22;12012;51.998;7.614;2022-11-25T02:56:55;6.80;1.00
23671;DHT22;12012;51.998;7.614;2022-11-25T02:59:20;6.90;1.00
23671;DHT22;12012;51.998;7.614;2022-11-25T03:01:46;6.90;1.00
23671;DHT22;12012;51.998;7.614;2022-11-25T03:04:11;6.90;1.00
23671;DHT22;12012;51.998;7.614;2022-11-25T03:06:37;6.90;1.00
23671;DHT22;12012;51.998;7.614;2022-11-25T03:09:03;6.90;1.00
23671;DHT22;12012;51.998;7.614;2022-11-25T03:11:28;7.00;1.00
23671;DHT22;12012;51.998;7.614;2022-11-25T03:14:13;7.00;1.00
23671;DHT22;12012;51.998;7.614;2022-11-25T03:16:38;7.00;1.00
23671;DHT22;12012;51.998;7.614;2022-11-25T03:19:04;7.00;1.00
23671;DHT22;12012;51.998;7.614;2022-11-25T03:21:30;7.00;1.00
23671;DHT22;12012;51.998;7.614;2022-11-25T03:23:55;7.00;1.00
23671;DHT22;12012;51.998;7.614;2022-11-25T03:26:21;7.00;1.00
23671;DHT22;12012;51.998;7.614;2022-11-25T03:28:46;7.10;1.00
23671;DHT22;12012;51.998;7.614;2022-11-25T03:31:12;7.10;1.00
23671;DHT22;12012;51.998;7.614;2022-11-25T03:33:37;7.10;1.00
23671;DHT22;12012;51.998;7.614;2022-11-25T03:36:03;7.10;1.00
23671;DHT22;12012;51.998;7.614;2022-11-25T03:38:29;7.20;1.00
23671;DHT22;12012;51.998;7.614;2022-11-25T03:40:54;7.20;1.00
23671;DHT22;12012;51.998;7.614;2022-11-25T03:43:20;7.20;1.00
23671;DHT22;12012;51.998;7.614;2022-11-25T03:45:48;7.20;1.00
23671;DHT22;12012;51.998;7.614;2022-11-25T03:48:14;7.20;1.00
23671;DHT22;12012;51.998;7.614;2022-11-25T03:50:40;7.30;1.00
23671;DHT22;12012;51.998;7.614;2022-11-25T03:53:07;7.20;1.00
23671;DHT22;12012;51.998;7.614;2022-11-25T03:55:32;7.30;1.00
23671;DHT22;12012;51.998;7.614;2022-11-25T03:57:58;7.30;1.00
23671;DHT22;12012;51.998;7.614;2022-11-25T04:00:23;7.30;1.00
23671;DHT22;12012;51.998;7.614;2022-11-25T04:02:49;7.30;1.00
23671;DHT22;12012;51.998;7.614;2022-11-25T04:05:15;7.30;1.00
23671;DHT22;12012;51.998;7.614;2022-11-25T04:07:40;7.40;1.00
23671;DHT22;12012;51.998;7.614;2022-11-25T04:10:06;7.40;1.00
23671;DHT22;12012;51.998;7.614;2022-11-25T04:12:32;7.30;1.00
23671;DHT22;12012;51.998;7.614;2022-11-25T04:15:14;7.40;1.00
23671;DHT22;12012;51.998;7.614;2022-11-25T04:17:40;7.40;1.00
23671;DHT22;12012;51.998;7.614;2022-11-25T04:20:06;7.40;1.00
23671;DHT22;12012;51.998;7.614;2022-11-25T04:22:32;7.30;1.00
23671;DHT22;12012;51.998;7.614;2022-11-25T04:24:58;7.30;1.00
23671;DHT22;12012;51.998;7.614;2022-11-25T04:27:23;7.30;1.00
23671;DHT22;12012;51.998;7.614;2022-11-25T04:29:49;7.30;1.00
23671;DHT22;12012;51.998;7.614;2022-11-25T04:32:14;7.30;1.00
23671;DHT22;12012;51.998;7.614;2022-11-25T04:34:40;7.30;1.00
23671;DHT22;12012;51.998;7.614;2022-11-25T04:37:06;7.30;1.00
23671;DHT22;12012;51.998;7.614;2022-11-25T04:39:31;7.20;1.00
23671;DHT22;12012;51.998;7.614;2022-11-25T04:41:57;7.30;1.00
23671;DHT22;12012;51.998;7.614;2022-11-25T04:44:41;7.20;1.00
23671;DHT22;12012;51.998;7.614;2022-11-25T04:47:06;7.20;1.00
23671;DHT22;12012;51.998;7.614;2022-11-25T04:49:32;7.20;1.00
23671;DHT22;12012;51.998;7.614;2022-11-25T04:51:58;7.20;1.00
23671;DHT22;12012;51.998;7.614;2022-11-25T04:54:23;7.20;1.00
23671;DHT22;12012;51.998;7.614;2022-11-25T04:56:49;7.20;1.00
23671;DHT22;12012;51.998;7.614;2022-11-25T04:59:14;7.20;1.00
23671;DHT22;12012;51.998;7.614;2022-11-25T05:01:58;7.20;1.00
23671;DHT22;12012;51.998;7.614;2022-11-25T05:04:24;7.30;1.00
23671;DHT22;12012;51.998;7.614;2022-11-25T05:06:49;7.30;1.00
23671;DHT22;12012;51.998;7.614;2022-11-25T05:09:16;7.30;1.00
23671;DHT22;12012;51.998;7.614;2022-11-25T05:11:42;7.30;1.00
23671;DHT22;12012;51.998;7.614;2022-11-25T05:14:07;7.30;1.00
23671;DHT22;12012;51.998;7.614;2022-11-25T05:16:33;7.30;1.00
23671;DHT22;12012;51.998;7.614;2022-11-25T05:18:59;7.30;1.00
23671;DHT22;12012;51.998;7.614;2022-11-25T05:21:25;7.30;1.00
23671;DHT22;12012;51.998;7.614;2022-11-25T05:23:50;7.30;1.00
23671;DHT22;12012;51.998;7.614;2022-11-25T05:26:16;7.30;9.20
23671;DHT22;12012;51.998;7.614;2022-11-25T05:28:41;7.40;21.50
23671;DHT22;12012;51.998;7.614;2022-11-25T05:31:07;7.40;45.30
23671;DHT22;12012;51.998;7.614;2022-11-25T05:33:33;7.40;50.90
23671;DHT22;12012;51.998;7.614;2022-11-25T05:36:00;7.50;47.70
23671;DHT22;12012;51.998;7.614;2022-11-25T05:38:27;7.50;56.00
23671;DHT22;12012;51.998;7.614;2022-11-25T05:40:53;7.60;55.20
23671;DHT22;12012;51.998;7.614;2022-11-25T05:43:18;7.60;53.90
23671;DHT22;12012;51.998;7.614;2022-11-25T05:45:44;7.60;50.70
23671;DHT22;12012;51.998;7.614;2022-11-25T05:48:09;7.60;56.80
23671;DHT22;12012;51.998;7.614;2022-11-25T05:50:36;7.70;56.50
23671;DHT22;12012;51.998;7.614;2022-11-25T05:53:02;7.70;63.70
23671;DHT22;12012;51.998;7.614;2022-11-25T05:55:27;7.70;67.30
23671;DHT22;12012;51.998;7.614;2022-11-25T05:57:53;7.70;72.90
23671;DHT22;12012;51.998;7.614;2022-11-25T06:00:19;7.70;65.00
23671;DHT22;12012;51.998;7.614;2022-11-25T06:02:48;7.70;74.20
23671;DHT22;12012;51.998;7.614;2022-11-25T06:05:14;7.80;81.60
23671;DHT22;12012;51.998;7.614;2022-11-25T06:07:39;7.70;90.70
23671;DHT22;12012;51.998;7.614;2022-11-25T06:10:06;7.70;90.80
23671;DHT22;12012;51.998;7.614;2022-11-25T06:12:31;7.80;91.70
23671;DHT22;12012;51.998;7.614;2022-11-25T06:14:57;7.80;93.40
23671;DHT22;12012;51.998;7.614;2022-11-25T06:17:22;7.80;95.60
23671;DHT22;12012;51.998;7.614;2022-11-25T06:19:48;7.80;95.80
23671;DHT22;12012;51.998;7.614;2022-11-25T06:22:13;7.90;96.80
23671;DHT22;12012;51.998;7.614;2022-11-25T06:24:39;7.90;97.10
23671;DHT22;12012;51.998;7.614;2022-11-25T06:27:05;7.90;97.40
23671;DHT22;12012;51.998;7.614;2022-11-25T06:29:30;7.90;98.20
23671;DHT22;12012;51.998;7.614;2022-11-25T06:31:56;7.90;98.30
23671;DHT22;12012;51.998;7.614;2022-11-25T06:34:21;7.90;98.00
23671;DHT22;12012;51.998;7.614;2022-11-25T06:36:48;8.00;98.20
23671;DHT22;12012;51.998;7.614;2022-11-25T06:39:14;8.00;98.30
23671;DHT22;12012;51.998;7.614;2022-11-25T06:41:39;8.00;98.80
23671;DHT22;12012;51.998;7.614;2022-11-25T06:44:05;8.10;98.50
23671;DHT22;12012;51.998;7.614;2022-11-25T06:46:30;8.10;98.60
23671;DHT22;12012;51.998;7.614;2022-11-25T06:48:58;8.20;98.40
23671;DHT22;12012;51.998;7.614;2022-11-25T06:51:25;8.20;98.50
23671;DHT22;12012;51.998;7.614;2022-11-25T06:53:51;8.20;97.50
23671;DHT22;12012;51.998;7.614;2022-11-25T06:56:20;8.20;97.60
23671;DHT22;12012;51.998;7.614;2022-11-25T06:58:47;8.30;97.40
23671;DHT22;12012;51.998;7.614;2022-11-25T07:03:43;8.30;97.30
23671;DHT22;12012;51.998;7.614;2022-11-25T07:06:12;8.30;96.80
23671;DHT22;12012;51.998;7.614;2022-11-25T07:08:38;8.30;97.20
23671;DHT22;12012;51.998;7.614;2022-11-25T07:11:27;8.30;97.60
23671;DHT22;12012;51.998;7.614;2022-11-25T07:13:57;8.30;97.60
23671;DHT22;12012;51.998;7.614;2022-11-25T07:16:22;8.30;97.40
23671;DHT22;12012;51.998;7.614;2022-11-25T07:18:49;8.30;97.40
23671;DHT22;12012;51.998;7.614;2022-11-25T07:21:23;8.30;97.40
23671;DHT22;12012;51.998;7.614;2022-11-25T07:23:50;8.40;97.50
23671;DHT22;12012;51.998;7.614;2022-11-25T07:26:21;8.40;97.10
23671;DHT22;12012;51.998;7.614;2022-11-25T07:28:48;8.40;97.40
23671;DHT22;12012;51.998;7.614;2022-11-25T07:33:41;8.40;97.20
23671;DHT22;12012;51.998;7.614;2022-11-25T07:36:09;8.40;97.00
23671;DHT22;12012;51.998;7.614;2022-11-25T07:38:36;8.40;97.30
23671;DHT22;12012;51.998;7.614;2022-11-25T07:41:04;8.40;97.20
23671;DHT22;12012;51.998;7.614;2022-11-25T07:43:30;8.40;96.50
23671;DHT22;12012;51.998;7.614;2022-11-25T07:45:55;8.40;96.50
23671;DHT22;12012;51.998;7.614;2022-11-25T07:48:21;8.40;97.30
23671;DHT22;12012;51.998;7.614;2022-11-25T07:50:46;8.40;97.30
23671;DHT22;12012;51.998;7.614;2022-11-25T07:53:14;8.40;97.90
23671;DHT22;12012;51.998;7.614;2022-11-25T07:55:40;8.40;97.10
23671;DHT22;12012;51.998;7.614;2022-11-25T07:58:06;8.40;97.70
23671;DHT22;12012;51.998;7.614;2022-11-25T08:00:31;8.40;97.70
23671;DHT22;12012;51.998;7.614;2022-11-25T08:02:57;8.50;97.90
23671;DHT22;12012;51.998;7.614;2022-11-25T08:05:22;8.50;97.20
23671;DHT22;12012;51.998;7.614;2022-11-25T08:07:48;8.40;97.90
23671;DHT22;12012;51.998;7.614;2022-11-25T08:10:13;8.40;98.00
23671;DHT22;12012;51.998;7.614;2022-11-25T08:12:39;8.50;98.30
23671;DHT22;12012;51.998;7.614;2022-11-25T08:15:05;8.50;98.30
23671;DHT22;12012;51.998;7.614;2022-11-25T08:17:31;8.50;98.20
23671;DHT22;12012;51.998;7.614;2022-11-25T08:19:57;8.40;97.90
23671;DHT22;12012;51.998;7.614;2022-11-25T08:22:23;8.40;97.90
23671;DHT22;12012;51.998;7.614;2022-11-25T08:24:48;8.40;97.70
23671;DHT22;12012;51.998;7.614;2022-11-25T08:27:14;8.40;97.80
23671;DHT22;12012;51.998;7.614;2022-11-25T08:29:39;8.40;98.00
23671;DHT22;12012;51.998;7.614;2022-11-25T08:32:05;8.40;98.70
23671;DHT22;12012;51.998;7.614;2022-11-25T08:34:33;8.40;98.20
23671;DHT22;12012;51.998;7.614;2022-11-25T08:36:58;8.40;98.50
23671;DHT22;12012;51.998;7.614;2022-11-25T08:39:24;8.40;98.70
23671;DHT22;12012;51.998;7.614;2022-11-25T08:41:49;8.50;99.00
23671;DHT22;12012;51.998;7.614;2022-11-25T08:44:15;8.50;99.60
23671;DHT22;12012;51.998;7.614;2022-11-25T08:46:41;8.60;99.70
23671;DHT22;12012;51.998;7.614;2022-11-25T08:49:08;8.70;99.60
23671;DHT22;12012;51.998;7.614;2022-11-25T08:51:35;8.70;99.20
23671;DHT22;12012;51.998;7.614;2022-11-25T08:54:02;8.70;99.20
23671;DHT22;12012;51.998;7.614;2022-11-25T08:56:29;8.70;99.10
23671;DHT22;12012;51.998;7.614;2022-11-25T08:58:55;8.70;98.90
23671;DHT22;12012;51.998;7.614;2022-11-25T09:01:21;8.80;98.70
23671;DHT22;12012;51.998;7.614;2022-11-25T09:03:50;8.90;98.30
23671;DHT22;12012;51.998;7.614;2022-11-25T09:06:16;9.00;97.70
23671;DHT22;12012;51.998;7.614;2022-11-25T09:08:42;9.10;97.00
23671;DHT22;12012;51.998;7.614;2022-11-25T09:11:09;9.30;96.10
23671;DHT22;12012;51.998;7.614;2022-11-25T09:13:35;9.40;94.60
23671;DHT22;12012;51.998;7.614;2022-11-25T09:16:00;9.50;93.70
23671;DHT22;12012;51.998;7.614;2022-11-25T09:18:27;9.60;92.90
23671;DHT22;12012;51.998;7.614;2022-11-25T09:20:55;9.70;91.40
23671;DHT22;12012;51.998;7.614;2022-11-25T09:23:21;9.70;88.50
23671;DHT22;12012;51.998;7.614;2022-11-25T09:25:55;9.80;85.70
23671;DHT22;12012;51.998;7.614;2022-11-25T09:28:23;9.90;81.60
23671;DHT22;12012;51.998;7.614;2022-11-25T09:30:49;10.00;77.30
23671;DHT22;12012;51.998;7.614;2022-11-25T09:33:15;10.10;69.50
23671;DHT22;12012;51.998;7.614;2022-11-25T09:35:41;10.20;61.10
23671;DHT22;12012;51.998;7.614;2022-11-25T09:38:07;10.40;46.00
23671;DHT22;12012;51.998;7.614;2022-11-25T09:40:38;10.60;33.00
23671;DHT22;12012;51.998;7.614;2022-11-25T09:43:28;10.70;24.00
23671;DHT22;12012;51.998;7.614;2022-11-25T09:52:44;11.20;1.00
23671;DHT22;12012;51.998;7.614;2022-11-25T09:55:18;11.40;1.00
23671;DHT22;12012;51.998;7.614;2022-11-25T09:58:12;11.70;1.00
23671;DHT22;12012;51.998;7.614;2022-11-25T10:00:41;11.90;1.00
23671;DHT22;12012;51.998;7.614;2022-11-25T10:05:41;12.30;1.00
23671;DHT22;12012;51.998;7.614;2022-11-25T10:08:22;12.50;99.90
23671;DHT22;12012;51.998;7.614;2022-11-25T10:10:52;12.70;99.90
23671;DHT22;12012;51.998;7.614;2022-11-25T10:13:28;12.80;1.00
23671;DHT22;12012;51.998;7.614;2022-11-25T10:15:58;13.00;1.00
23671;DHT22;12012;51.998;7.614;2022-11-25T10:18:38;13.00;1.00
23671;DHT22;12012;51.998;7.614;2022-11-25T10:21:04;13.10;99.90
23671;DHT22;12012;51.998;7.614;2022-11-25T10:23:33;13.10;99.90
23671;DHT22;12012;51.998;7.614;2022-11-25T10:26:25;13.40;99.90
23671;DHT22;12012;51.998;7.614;2022-11-25T10:29:04;13.60;99.90
23671;DHT22;12012;51.998;7.614;2022-11-25T10:31:35;13.40;99.90
23671;DHT22;12012;51.998;7.614;2022-11-25T10:34:01;13.30;99.90
23671;DHT22;12012;51.998;7.614;2022-11-25T10:36:38;13.20;1.00
23671;DHT22;12012;51.998;7.614;2022-11-25T10:39:25;13.20;99.90
23671;DHT22;12012;51.998;7.614;2022-11-25T10:44:26;13.60;99.90
23671;DHT22;12012;51.998;7.614;2022-11-25T10:53:01;15.20;99.90
23671;DHT22;12012;51.998;7.614;2022-11-25T10:55:28;15.50;99.90
23671;DHT22;12012;51.998;7.614;2022-11-25T10:57:55;16.00;30.40
23671;DHT22;12012;51.998;7.614;2022-11-25T11:02:49;16.90;99.90
23671;DHT22;12012;51.998;7.614;2022-11-25T11:05:22;17.30;99.90
23671;DHT22;12012;51.998;7.614;2022-11-25T11:08:25;18.00;99.90
23671;DHT22;12012;51.998;7.614;2022-11-25T11:14:11;19.70;99.90
23671;DHT22;12012;51.998;7.614;2022-11-25T11:16:41;20.60;76.40
23671;DHT22;12012;51.998;7.614;2022-11-25T11:19:23;21.10;48.80
23671;DHT22;12012;51.998;7.614;2022-11-25T11:21:49;21.20;17.80
23671;DHT22;12012;51.998;7.614;2022-11-25T11:24:31;21.50;8.40
23671;DHT22;12012;51.998;7.614;2022-11-25T11:29:41;21.50;1.00
23671;DHT22;12012;51.998;7.614;2022-11-25T11:32:13;21.70;1.00
23671;DHT22;12012;51.998;7.614;2022-11-25T11:35:02;21.80;1.00
23671;DHT22;12012;51.998;7.614;2022-11-25T11:37:44;22.00;1.00
23671;DHT22;12012;51.998;7.614;2022-11-25T11:42:44;22.40;1.00
23671;DHT22;12012;51.998;7.614;2022-11-25T11:48:22;22.70;1.00
23671;DHT22;12012;51.998;7.614;2022-11-25T11:56:39;22.60;1.00
23671;DHT22;12012;51.998;7.614;2022-11-25T11:59:23;22.80;1.00
23671;DHT22;12012;51.998;7.614;2022-11-25T12:04:53;22.80;1.00
23671;DHT22;12012;51.998;7.614;2022-11-25T12:18:37;20.60;1.00
23671;DHT22;12012;51.998;7.614;2022-11-25T12:26:55;20.00;1.00
23671;DHT22;12012;51.998;7.614;2022-11-25T12:29:37;20.90;1.00
23671;DHT22;12012;51.998;7.614;2022-11-25T12:40:46;22.30;1.00
23671;DHT22;12012;51.998;7.614;2022-11-25T12:45:54;22.50;1.00
23671;DHT22;12012;51.998;7.614;2022-11-25T12:48:24;22.30;1.00
23671;DHT22;12012;51.998;7.614;2022-11-25T12:51:41;22.10;1.00
23671;DHT22;12012;51.998;7.614;2022-11-25T12:54:09;21.20;1.00
23671;DHT22;12012;51.998;7.614;2022-11-25T13:16:32;16.60;28.00
23671;DHT22;12012;51.998;7.614;2022-11-25T13:18:58;16.30;54.70
23671;DHT22;12012;51.998;7.614;2022-11-25T13:21:25;16.00;89.80
23671;DHT22;12012;51.998;7.614;2022-11-25T13:23:54;15.50;99.90
23671;DHT22;12012;51.998;7.614;2022-11-25T13:32:02;14.30;99.90
23671;DHT22;12012;51.998;7.614;2022-11-25T13:34:31;14.00;99.90
23671;DHT22;12012;51.998;7.614;2022-11-25T13:37:00;13.70;99.90
23671;DHT22;12012;51.998;7.614;2022-11-25T13:39:31;13.60;99.90
23671;DHT22;12012;51.998;7.614;2022-11-25T13:44:32;13.30;1.00
23671;DHT22;12012;51.998;7.614;2022-11-25T13:49:54;13.00;1.00
23671;DHT22;12012;51.998;7.614;2022-11-25T13:52:39;12.80;45.40
23671;DHT22;12012;51.998;7.614;2022-11-25T13:57:48;12.50;99.90
23671;DHT22;12012;51.998;7.614;2022-11-25T14:02:50;12.20;99.90
23671;DHT22;12012;51.998;7.614;2022-11-25T14:08:35;12.10;1.00
23671;DHT22;12012;51.998;7.614;2022-11-25T14:22:09;11.70;99.90
23671;DHT22;12012;51.998;7.614;2022-11-25T14:24:40;11.60;99.90
23671;DHT22;12012;51.998;7.614;2022-11-25T14:27:23;11.60;99.90
23671;DHT22;12012;51.998;7.614;2022-11-25T14:29:58;11.60;99.90
23671;DHT22;12012;51.998;7.614;2022-11-25T14:32:33;11.60;99.90
23671;DHT22;12012;51.998;7.614;2022-11-25T14:35:10;11.60;99.90
23671;DHT22;12012;51.998;7.614;2022-11-25T14:42:58;11.60;99.90
23671;DHT22;12012;51.998;7.614;2022-11-25T14:45:31;11.50;99.90
23671;DHT22;12012;51.998;7.614;2022-11-25T14:48:15;11.50;99.90
23671;DHT22;12012;51.998;7.614;2022-11-25T14:50:58;11.50;99.90
23671;DHT22;12012;51.998;7.614;2022-11-25T14:53:24;11.40;1.00
23671;DHT22;12012;51.998;7.614;2022-11-25T14:55:51;11.50;1.00
23671;DHT22;12012;51.998;7.614;2022-11-25T14:58:18;11.50;1.00
23671;DHT22;12012;51.998;7.614;2022-11-25T15:00:57;11.40;1.00
23671;DHT22;12012;51.998;7.614;2022-11-25T15:03:24;11.40;1.00
23671;DHT22;12012;51.998;7.614;2022-11-25T15:05:55;11.40;99.90
23671;DHT22;12012;51.998;7.614;2022-11-25T15:08:22;11.40;20.00
23671;DHT22;12012;51.998;7.614;2022-11-25T15:10:55;11.30;99.90
23671;DHT22;12012;51.998;7.614;2022-11-25T15:13:32;11.30;99.90
23671;DHT22;12012;51.998;7.614;2022-11-25T15:16:18;11.20;96.30
23671;DHT22;12012;51.998;7.614;2022-11-25T15:19:04;11.10;99.90
23671;DHT22;12012;51.998;7.614;2022-11-25T15:21:34;11.00;99.90
23671;DHT22;12012;51.998;7.614;2022-11-25T15:24:01;10.90;1.00
23671;DHT22;12012;51.998;7.614;2022-11-25T15:26:30;10.80;99.90
23671;DHT22;12012;51.998;7.614;2022-11-25T15:29:10;10.80;72.40
23671;DHT22;12012;51.998;7.614;2022-11-25T15:31:36;10.70;99.90
23671;DHT22;12012;51.998;7.614;2022-11-25T15:34:05;10.70;33.30
23671;DHT22;12012;51.998;7.614;2022-11-25T15:36:32;10.60;38.00
23671;DHT22;12012;51.998;7.614;2022-11-25T15:41:51;10.50;99.90
23671;DHT22;12012;51.998;7.614;2022-11-25T15:44:18;10.50;1.00
23671;DHT22;12012;51.998;7.614;2022-11-25T15:46:58;10.50;1.00
23671;DHT22;12012;51.998;7.614;2022-11-25T15:49:25;10.40;99.90
23671;DHT22;12012;51.998;7.614;2022-11-25T15:52:03;10.40;1.00
23671;DHT22;12012;51.998;7.614;2022-11-25T15:54:37;10.40;1.00
23671;DHT22;12012;51.998;7.614;2022-11-25T15:57:17;10.30;1.00
23671;DHT22;12012;51.998;7.614;2022-11-25T16:00:02;10.30;70.10
23671;DHT22;12012;51.998;7.614;2022-11-25T16:05:23;10.30;99.90
23671;DHT22;12012;51.998;7.614;2022-11-25T16:10:30;10.20;1.00
23671;DHT22;12012;51.998;7.614;2022-11-25T16:13:31;10.20;1.00
23671;DHT22;12012;51.998;7.614;2022-11-25T16:21:04;10.20;99.90
23671;DHT22;12012;51.998;7.614;2022-11-25T16:23:40;10.20;99.90
23671;DHT22;12012;51.998;7.614;2022-11-25T16:26:15;10.10;1.00
23671;DHT22;12012;51.998;7.614;2022-11-25T16:28:49;10.10;1.00
23671;DHT22;12012;51.998;7.614;2022-11-25T16:31:16;10.10;1.00
23671;DHT22;12012;51.998;7.614;2022-11-25T16:33:41;10.00;99.90
23671;DHT22;12012;51.998;7.614;2022-11-25T16:36:07;10.00;12.50
23671;DHT22;12012;51.998;7.614;2022-11-25T16:38:33;9.90;1.00
23671;DHT22;12012;51.998;7.614;2022-11-25T16:40:59;9.90;99.90
23671;DHT22;12012;51.998;7.614;2022-11-25T16:43:27;9.80;1.00
23671;DHT22;12012;51.998;7.614;2022-11-25T16:45:54;9.80;51.40
23671;DHT22;12012;51.998;7.614;2022-11-25T16:48:22;9.70;1.00
23671;DHT22;12012;51.998;7.614;2022-11-25T16:50:49;9.70;99.90
23671;DHT22;12012;51.998;7.614;2022-11-25T16:53:14;9.60;99.90
23671;DHT22;12012;51.998;7.614;2022-11-25T16:55:43;9.60;99.90
23671;DHT22;12012;51.998;7.614;2022-11-25T16:58:21;9.50;27.90
23671;DHT22;12012;51.998;7.614;2022-11-25T17:00:52;9.50;1.00
23671;DHT22;12012;51.998;7.614;2022-11-25T17:03:19;9.40;99.90
23671;DHT22;12012;51.998;7.614;2022-11-25T17:05:46;9.40;99.90
23671;DHT22;12012;51.998;7.614;2022-11-25T17:08:12;9.30;99.90
23671;DHT22;12012;51.998;7.614;2022-11-25T17:10:40;9.20;59.00
23671;DHT22;12012;51.998;7.614;2022-11-25T17:13:06;9.10;1.00
23671;DHT22;12012;51.998;7.614;2022-11-25T17:15:34;9.10;41.70
23671;DHT22;12012;51.998;7.614;2022-11-25T17:18:01;9.10;22.30
23671;DHT22;12012;51.998;7.614;2022-11-25T17:20:27;9.00;1.00
23671;DHT22;12012;51.998;7.614;2022-11-25T17:22:53;9.00;19.10
23671;DHT22;12012;51.998;7.614;2022-11-25T17:25:20;9.00;99.90
23671;DHT22;12012;51.998;7.614;2022-11-25T17:27:47;9.00;99.90
23671;DHT22;12012;51.998;7.614;2022-11-25T17:30:24;9.00;99.90
23671;DHT22;12012;51.998;7.614;2022-11-25T17:33:01;9.00;99.90
23671;DHT22;12012;51.998;7.614;2022-11-25T17:35:28;9.00;99.90
23671;DHT22;12012;51.998;7.614;2022-11-25T17:37:56;9.00;99.90
23671;DHT22;12012;51.998;7.614;2022-11-25T17:40:22;9.00;99.90
23671;DHT22;12012;51.998;7.614;2022-11-25T17:42:48;9.00;99.90
23671;DHT22;12012;51.998;7.614;2022-11-25T17:45:17;9.00;99.90
23671;DHT22;12012;51.998;7.614;2022-11-25T17:47:44;9.00;99.90
23671;DHT22;12012;51.998;7.614;2022-11-25T17:50:24;9.00;99.90
23671;DHT22;12012;51.998;7.614;2022-11-25T17:52:50;9.00;99.90
23671;DHT22;12012;51.998;7.614;2022-11-25T17:55:17;9.00;99.90
23671;DHT22;12012;51.998;7.614;2022-11-25T17:57:49;9.00;1.00
23671;DHT22;12012;51.998;7.614;2022-11-25T18:00:19;9.00;1.00
23671;DHT22;12012;51.998;7.614;2022-11-25T18:02:45;9.00;1.00
23671;DHT22;12012;51.998;7.614;2022-11-25T18:05:18;9.10;1.00
23671;DHT22;12012;51.998;7.614;2022-11-25T18:07:45;9.10;1.00
23671;DHT22;12012;51.998;7.614;2022-11-25T18:10:12;9.10;1.00
23671;DHT22;12012;51.998;7.614;2022-11-25T18:12:39;9.10;1.00
23671;DHT22;12012;51.998;7.614;2022-11-25T18:15:05;9.10;1.00
23671;DHT22;12012;51.998;7.614;2022-11-25T18:17:35;9.20;1.00
23671;DHT22;12012;51.998;7.614;2022-11-25T18:20:14;9.20;1.00
23671;DHT22;12012;51.998;7.614;2022-11-25T18:22:40;9.20;1.00
23671;DHT22;12012;51.998;7.614;2022-11-25T18:25:06;9.20;1.00